sensor_id;sensor_type;location;lat;lon;timestamp;P1;durP1;ratioP1;P2;durP2;ratioP2
8584;SDS011;7180;52.742;11.420;2023-03-01T00:01:09;10.83;;;10.03;;
8584;SDS011;7180;52.742;11.420;2023-03-01T00:03:37;11.47;;;10.40;;
8584;SDS011;7180;52.742;11.420;2023-03-01T00:06:02;11.67;;;10.67;;
8584;SDS011;7180;52.742;11.420;2023-03-01T00:08:29;11.33;;;10.33;;
8584;SDS011;7180;52.742;11.420;2023-03-01T00:11:05;11.37;;;10.50;;
8584;SDS011;7180;52.742;11.420;2023-03-01T00:13:35;11.07;;;10.27;;
8584;SDS011;7180;52.742;11.420;2023-03-01T00:16:02;12.50;;;11.40;;
8584;SDS011;7180;52.742;11.420;2023-03-01T00:18:28;11.43;;;10.53;;
8584;SDS011;7180;52.742;11.420;2023-03-01T00:20:54;11.90;;;11.00;;
8584;SDS011;7180;52.742;11.420;2023-03-01T00:23:21;12.30;;;11.20;;
8584;SDS011;7180;52.742;11.420;2023-03-01T00:25:47;12.80;;;11.60;;
8584;SDS011;7180;52.742;11.420;2023-03-01T00:28:13;11.93;;;11.03;;
8584;SDS011;7180;52.742;11.420;2023-03-01T00:30:39;12.80;;;11.70;;
8584;SDS011;7180;52.742;11.420;2023-03-01T00:33:04;12.80;;;11.70;;
8584;SDS011;7180;52.742;11.420;2023-03-01T00:35:29;12.17;;;11.17;;
8584;SDS011;7180;52.742;11.420;2023-03-01T00:37:57;12.53;;;11.53;;
8584;SDS011;7180;52.742;11.420;2023-03-01T00:40:26;12.57;;;11.47;;
8584;SDS011;7180;52.742;11.420;2023-03-01T00:42:52;12.47;;;11.43;;
8584;SDS011;7180;52.742;11.420;2023-03-01T00:45:18;11.63;;;10.83;;
8584;SDS011;7180;52.742;11.420;2023-03-01T00:47:43;12.33;;;11.23;;
8584;SDS011;7180;52.742;11.420;2023-03-01T00:50:09;12.50;;;11.33;;
8584;SDS011;7180;52.742;11.420;2023-03-01T00:52:35;11.83;;;10.93;;
8584;SDS011;7180;52.742;11.420;2023-03-01T00:55:01;12.93;;;11.83;;
8584;SDS011;7180;52.742;11.420;2023-03-01T00:57:26;11.63;;;10.67;;
8584;SDS011;7180;52.742;11.420;2023-03-01T00:59:51;12.30;;;11.20;;
8584;SDS011;7180;52.742;11.420;2023-03-01T01:02:17;12.57;;;11.47;;
8584;SDS011;7180;52.742;11.420;2023-03-01T01:04:44;12.77;;;11.60;;
8584;SDS011;7180;52.742;11.420;2023-03-01T01:07:09;13.00;;;11.90;;
8584;SDS011;7180;52.742;11.420;2023-03-01T01:09:35;12.97;;;11.87;;
8584;SDS011;7180;52.742;11.420;2023-03-01T01:12:01;12.77;;;11.73;;
8584;SDS011;7180;52.742;11.420;2023-03-01T01:14:27;13.10;;;11.80;;
8584;SDS011;7180;52.742;11.420;2023-03-01T01:16:52;13.07;;;12.00;;
8584;SDS011;7180;52.742;11.420;2023-03-01T01:19:17;13.07;;;12.07;;
8584;SDS011;7180;52.742;11.420;2023-03-01T01:21:43;12.90;;;11.70;;
8584;SDS011;7180;52.742;11.420;2023-03-01T01:24:09;12.23;;;11.27;;
8584;SDS011;7180;52.742;11.420;2023-03-01T01:26:35;13.17;;;11.97;;
8584;SDS011;7180;52.742;11.420;2023-03-01T01:29:01;12.83;;;11.73;;
8584;SDS011;7180;52.742;11.420;2023-03-01T01:31:28;13.63;;;12.23;;
8584;SDS011;7180;52.742;11.420;2023-03-01T01:33:54;13.03;;;11.83;;
8584;SDS011;7180;52.742;11.420;2023-03-01T01:36:20;12.10;;;11.00;;
8584;SDS011;7180;52.742;11.420;2023-03-01T01:38:46;12.67;;;11.60;;
8584;SDS011;7180;52.742;11.420;2023-03-01T01:41:12;13.13;;;12.03;;
8584;SDS011;7180;52.742;11.420;2023-03-01T01:43:39;12.53;;;11.43;;
8584;SDS011;7180;52.742;11.420;2023-03-01T01:48:58;12.97;;;11.87;;
8584;SDS011;7180;52.742;11.420;2023-03-01T01:51:31;13.03;;;11.93;;
8584;SDS011;7180;52.742;11.420;2023-03-01T01:54:03;12.80;;;11.70;;
8584;SDS011;7180;52.742;11.420;2023-03-01T01:56:33;13.03;;;11.87;;
8584;SDS011;7180;52.742;11.420;2023-03-01T01:58:59;13.00;;;11.90;;
8584;SDS011;7180;52.742;11.420;2023-03-01T02:01:26;12.10;;;11.03;;
8584;SDS011;7180;52.742;11.420;2023-03-01T02:03:51;13.10;;;11.90;;
8584;SDS011;7180;52.742;11.420;2023-03-01T02:06:19;12.43;;;11.43;;
8584;SDS011;7180;52.742;11.420;2023-03-01T02:08:53;13.30;;;12.10;;
8584;SDS011;7180;52.742;11.420;2023-03-01T02:11:22;13.07;;;11.97;;
8584;SDS011;7180;52.742;11.420;2023-03-01T02:13:47;12.90;;;11.90;;
8584;SDS011;7180;52.742;11.420;2023-03-01T02:16:14;13.23;;;12.03;;
8584;SDS011;7180;52.742;11.420;2023-03-01T02:18:41;13.23;;;12.03;;
8584;SDS011;7180;52.742;11.420;2023-03-01T02:21:11;12.93;;;11.93;;
8584;SDS011;7180;52.742;11.420;2023-03-01T02:23:56;12.53;;;11.53;;
8584;SDS011;7180;52.742;11.420;2023-03-01T02:29:07;13.13;;;11.93;;
8584;SDS011;7180;52.742;11.420;2023-03-01T02:31:33;12.10;;;11.00;;
8584;SDS011;7180;52.742;11.420;2023-03-01T02:34:18;13.03;;;11.93;;
8584;SDS011;7180;52.742;11.420;2023-03-01T02:36:56;12.50;;;11.50;;
8584;SDS011;7180;52.742;11.420;2023-03-01T02:42:27;13.30;;;12.10;;
8584;SDS011;7180;52.742;11.420;2023-03-01T02:44:57;13.50;;;12.30;;
8584;SDS011;7180;52.742;11.420;2023-03-01T02:47:22;12.90;;;11.80;;
8584;SDS011;7180;52.742;11.420;2023-03-01T02:49:48;12.60;;;11.50;;
8584;SDS011;7180;52.742;11.420;2023-03-01T02:55:02;12.87;;;11.77;;
8584;SDS011;7180;52.742;11.420;2023-03-01T02:57:31;13.03;;;11.90;;
8584;SDS011;7180;52.742;11.420;2023-03-01T02:59:59;12.37;;;11.40;;
8584;SDS011;7180;52.742;11.420;2023-03-01T03:02:31;12.90;;;11.80;;
8584;SDS011;7180;52.742;11.420;2023-03-01T03:05:01;12.47;;;11.47;;
8584;SDS011;7180;52.742;11.420;2023-03-01T03:07:28;11.70;;;10.70;;
8584;SDS011;7180;52.742;11.420;2023-03-01T03:09:53;12.50;;;11.23;;
8584;SDS011;7180;52.742;11.420;2023-03-01T03:12:19;11.83;;;10.93;;
8584;SDS011;7180;52.742;11.420;2023-03-01T03:14:44;12.47;;;11.40;;
8584;SDS011;7180;52.742;11.420;2023-03-01T03:17:09;12.47;;;11.43;;
8584;SDS011;7180;52.742;11.420;2023-03-01T03:19:34;11.83;;;10.83;;
8584;SDS011;7180;52.742;11.420;2023-03-01T03:22:00;12.53;;;11.53;;
8584;SDS011;7180;52.742;11.420;2023-03-01T03:24:25;12.50;;;11.40;;
8584;SDS011;7180;52.742;11.420;2023-03-01T03:26:50;13.07;;;11.87;;
8584;SDS011;7180;52.742;11.420;2023-03-01T03:29:15;12.80;;;11.70;;
8584;SDS011;7180;52.742;11.420;2023-03-01T03:31:41;12.73;;;11.63;;
8584;SDS011;7180;52.742;11.420;2023-03-01T03:34:06;12.40;;;11.37;;
8584;SDS011;7180;52.742;11.420;2023-03-01T03:36:31;12.63;;;11.43;;
8584;SDS011;7180;52.742;11.420;2023-03-01T03:38:56;12.17;;;11.17;;
8584;SDS011;7180;52.742;11.420;2023-03-01T03:41:22;12.27;;;11.17;;
8584;SDS011;7180;52.742;11.420;2023-03-01T03:43:47;12.60;;;11.50;;
8584;SDS011;7180;52.742;11.420;2023-03-01T03:46:13;12.10;;;11.10;;
8584;SDS011;7180;52.742;11.420;2023-03-01T03:48:40;12.73;;;11.73;;
8584;SDS011;7180;52.742;11.420;2023-03-01T03:51:09;12.23;;;11.17;;
8584;SDS011;7180;52.742;11.420;2023-03-01T03:53:39;12.23;;;11.23;;
8584;SDS011;7180;52.742;11.420;2023-03-01T03:56:04;13.10;;;12.00;;
8584;SDS011;7180;52.742;11.420;2023-03-01T03:58:30;13.30;;;12.10;;
8584;SDS011;7180;52.742;11.420;2023-03-01T04:00:56;14.67;;;13.27;;
8584;SDS011;7180;52.742;11.420;2023-03-01T04:03:22;14.93;;;13.63;;
8584;SDS011;7180;52.742;11.420;2023-03-01T04:05:49;14.07;;;12.87;;
8584;SDS011;7180;52.742;11.420;2023-03-01T04:08:15;14.30;;;13.07;;
8584;SDS011;7180;52.742;11.420;2023-03-01T04:10:43;14.30;;;13.03;;
8584;SDS011;7180;52.742;11.420;2023-03-01T04:13:10;14.07;;;12.73;;
8584;SDS011;7180;52.742;11.420;2023-03-01T04:15:38;12.97;;;11.77;;
8584;SDS011;7180;52.742;11.420;2023-03-01T04:18:04;13.00;;;11.90;;
8584;SDS011;7180;52.742;11.420;2023-03-01T04:20:31;12.30;;;11.30;;
8584;SDS011;7180;52.742;11.420;2023-03-01T04:25:35;12.53;;;11.53;;
8584;SDS011;7180;52.742;11.420;2023-03-01T04:28:11;12.73;;;11.40;;
8584;SDS011;7180;52.742;11.420;2023-03-01T04:30:37;12.13;;;11.13;;
8584;SDS011;7180;52.742;11.420;2023-03-01T04:33:05;13.57;;;12.00;;
8584;SDS011;7180;52.742;11.420;2023-03-01T04:35:31;13.07;;;11.83;;
8584;SDS011;7180;52.742;11.420;2023-03-01T04:37:57;13.10;;;11.90;;
8584;SDS011;7180;52.742;11.420;2023-03-01T04:40:22;12.63;;;11.50;;
8584;SDS011;7180;52.742;11.420;2023-03-01T04:42:48;12.97;;;11.80;;
8584;SDS011;7180;52.742;11.420;2023-03-01T04:45:13;12.97;;;11.83;;
8584;SDS011;7180;52.742;11.420;2023-03-01T04:47:42;13.30;;;12.20;;
8584;SDS011;7180;52.742;11.420;2023-03-01T04:50:09;12.73;;;11.60;;
8584;SDS011;7180;52.742;11.420;2023-03-01T04:52:36;12.77;;;11.57;;
8584;SDS011;7180;52.742;11.420;2023-03-01T04:55:02;13.40;;;12.20;;
8584;SDS011;7180;52.742;11.420;2023-03-01T04:57:28;13.33;;;12.10;;
8584;SDS011;7180;52.742;11.420;2023-03-01T04:59:54;13.60;;;12.23;;
8584;SDS011;7180;52.742;11.420;2023-03-01T05:02:19;13.47;;;12.27;;
8584;SDS011;7180;52.742;11.420;2023-03-01T05:04:44;13.77;;;12.53;;
8584;SDS011;7180;52.742;11.420;2023-03-01T05:07:09;13.50;;;12.10;;
8584;SDS011;7180;52.742;11.420;2023-03-01T05:09:35;13.03;;;11.70;;
8584;SDS011;7180;52.742;11.420;2023-03-01T05:12:00;11.80;;;10.93;;
8584;SDS011;7180;52.742;11.420;2023-03-01T05:14:25;12.90;;;11.80;;
8584;SDS011;7180;52.742;11.420;2023-03-01T05:16:50;12.63;;;11.63;;
8584;SDS011;7180;52.742;11.420;2023-03-01T05:19:16;13.33;;;12.13;;
8584;SDS011;7180;52.742;11.420;2023-03-01T05:21:42;13.60;;;12.30;;
8584;SDS011;7180;52.742;11.420;2023-03-01T05:24:26;14.00;;;12.73;;
8584;SDS011;7180;52.742;11.420;2023-03-01T05:26:53;13.47;;;12.40;;
8584;SDS011;7180;52.742;11.420;2023-03-01T05:29:19;14.03;;;12.70;;
8584;SDS011;7180;52.742;11.420;2023-03-01T05:31:50;13.20;;;12.00;;
8584;SDS011;7180;52.742;11.420;2023-03-01T05:34:30;13.70;;;12.50;;
8584;SDS011;7180;52.742;11.420;2023-03-01T05:36:57;14.27;;;12.97;;
8584;SDS011;7180;52.742;11.420;2023-03-01T05:39:24;13.67;;;12.47;;
8584;SDS011;7180;52.742;11.420;2023-03-01T05:41:54;13.70;;;12.40;;
8584;SDS011;7180;52.742;11.420;2023-03-01T05:44:20;13.90;;;12.53;;
8584;SDS011;7180;52.742;11.420;2023-03-01T05:46:46;14.47;;;13.17;;
8584;SDS011;7180;52.742;11.420;2023-03-01T05:49:11;13.57;;;12.47;;
8584;SDS011;7180;52.742;11.420;2023-03-01T05:51:38;13.20;;;12.13;;
8584;SDS011;7180;52.742;11.420;2023-03-01T05:54:03;12.97;;;11.87;;
8584;SDS011;7180;52.742;11.420;2023-03-01T05:56:31;13.63;;;12.43;;
8584;SDS011;7180;52.742;11.420;2023-03-01T05:58:58;13.67;;;12.47;;
8584;SDS011;7180;52.742;11.420;2023-03-01T06:01:24;13.57;;;12.27;;
8584;SDS011;7180;52.742;11.420;2023-03-01T06:03:49;12.93;;;11.93;;
8584;SDS011;7180;52.742;11.420;2023-03-01T06:06:14;13.23;;;12.03;;
8584;SDS011;7180;52.742;11.420;2023-03-01T06:08:39;12.77;;;11.80;;
8584;SDS011;7180;52.742;11.420;2023-03-01T06:11:05;12.73;;;11.73;;
8584;SDS011;7180;52.742;11.420;2023-03-01T06:13:31;12.90;;;11.70;;
8584;SDS011;7180;52.742;11.420;2023-03-01T06:15:57;12.77;;;11.67;;
8584;SDS011;7180;52.742;11.420;2023-03-01T06:18:22;13.43;;;12.33;;
8584;SDS011;7180;52.742;11.420;2023-03-01T06:20:54;13.07;;;11.87;;
8584;SDS011;7180;52.742;11.420;2023-03-01T06:23:21;13.43;;;12.10;;
8584;SDS011;7180;52.742;11.420;2023-03-01T06:25:47;12.97;;;11.93;;
8584;SDS011;7180;52.742;11.420;2023-03-01T06:28:12;13.03;;;11.90;;
8584;SDS011;7180;52.742;11.420;2023-03-01T06:30:37;12.97;;;11.87;;
8584;SDS011;7180;52.742;11.420;2023-03-01T06:33:02;12.93;;;11.90;;
8584;SDS011;7180;52.742;11.420;2023-03-01T06:35:28;13.03;;;11.93;;
8584;SDS011;7180;52.742;11.420;2023-03-01T06:37:56;12.60;;;11.50;;
8584;SDS011;7180;52.742;11.420;2023-03-01T06:40:22;12.87;;;11.83;;
8584;SDS011;7180;52.742;11.420;2023-03-01T06:42:49;13.63;;;12.47;;
8584;SDS011;7180;52.742;11.420;2023-03-01T06:45:15;15.47;;;13.83;;
8584;SDS011;7180;52.742;11.420;2023-03-01T06:47:41;14.73;;;13.30;;
8584;SDS011;7180;52.742;11.420;2023-03-01T06:50:06;15.30;;;13.80;;
8584;SDS011;7180;52.742;11.420;2023-03-01T06:52:32;14.57;;;13.10;;
8584;SDS011;7180;52.742;11.420;2023-03-01T06:54:58;14.07;;;12.63;;
8584;SDS011;7180;52.742;11.420;2023-03-01T06:57:23;14.20;;;12.97;;
8584;SDS011;7180;52.742;11.420;2023-03-01T06:59:49;13.97;;;12.77;;
8584;SDS011;7180;52.742;11.420;2023-03-01T07:02:14;14.73;;;13.30;;
8584;SDS011;7180;52.742;11.420;2023-03-01T07:04:40;15.20;;;13.83;;
8584;SDS011;7180;52.742;11.420;2023-03-01T07:07:07;14.83;;;13.53;;
8584;SDS011;7180;52.742;11.420;2023-03-01T07:09:32;15.80;;;13.97;;
8584;SDS011;7180;52.742;11.420;2023-03-01T07:11:57;15.97;;;14.47;;
8584;SDS011;7180;52.742;11.420;2023-03-01T07:14:23;16.33;;;13.93;;
8584;SDS011;7180;52.742;11.420;2023-03-01T07:16:52;15.90;;;14.27;;
8584;SDS011;7180;52.742;11.420;2023-03-01T07:19:18;16.37;;;14.67;;
8584;SDS011;7180;52.742;11.420;2023-03-01T07:21:44;16.87;;;15.27;;
8584;SDS011;7180;52.742;11.420;2023-03-01T07:24:09;16.97;;;15.23;;
8584;SDS011;7180;52.742;11.420;2023-03-01T07:26:34;17.83;;;15.00;;
8584;SDS011;7180;52.742;11.420;2023-03-01T07:29:00;18.10;;;14.37;;
8584;SDS011;7180;52.742;11.420;2023-03-01T07:31:27;16.50;;;14.90;;
8584;SDS011;7180;52.742;11.420;2023-03-01T07:33:53;18.03;;;15.63;;
8584;SDS011;7180;52.742;11.420;2023-03-01T07:36:19;16.80;;;15.07;;
8584;SDS011;7180;52.742;11.420;2023-03-01T07:38:44;18.77;;;15.90;;
8584;SDS011;7180;52.742;11.420;2023-03-01T07:41:09;18.33;;;16.37;;
8584;SDS011;7180;52.742;11.420;2023-03-01T07:43:35;17.40;;;15.57;;
8584;SDS011;7180;52.742;11.420;2023-03-01T07:46:01;17.37;;;15.63;;
8584;SDS011;7180;52.742;11.420;2023-03-01T07:48:28;17.10;;;15.37;;
8584;SDS011;7180;52.742;11.420;2023-03-01T07:50:54;16.50;;;15.00;;
8584;SDS011;7180;52.742;11.420;2023-03-01T07:53:23;17.13;;;15.50;;
8584;SDS011;7180;52.742;11.420;2023-03-01T07:55:48;16.93;;;15.33;;
8584;SDS011;7180;52.742;11.420;2023-03-01T07:58:14;16.23;;;14.83;;
8584;SDS011;7180;52.742;11.420;2023-03-01T08:00:39;15.60;;;14.20;;
8584;SDS011;7180;52.742;11.420;2023-03-01T08:03:04;25.63;;;15.83;;
8584;SDS011;7180;52.742;11.420;2023-03-01T08:05:29;27.53;;;15.97;;
8584;SDS011;7180;52.742;11.420;2023-03-01T08:07:55;18.60;;;15.17;;
8584;SDS011;7180;52.742;11.420;2023-03-01T08:10:20;22.80;;;14.27;;
8584;SDS011;7180;52.742;11.420;2023-03-01T08:12:45;22.17;;;15.80;;
8584;SDS011;7180;52.742;11.420;2023-03-01T08:15:10;15.97;;;14.50;;
8584;SDS011;7180;52.742;11.420;2023-03-01T08:17:36;15.80;;;14.30;;
8584;SDS011;7180;52.742;11.420;2023-03-01T08:20:02;16.47;;;14.90;;
8584;SDS011;7180;52.742;11.420;2023-03-01T08:22:29;15.90;;;14.50;;
8584;SDS011;7180;52.742;11.420;2023-03-01T08:24:54;15.20;;;13.90;;
8584;SDS011;7180;52.742;11.420;2023-03-01T08:27:20;15.37;;;13.83;;
8584;SDS011;7180;52.742;11.420;2023-03-01T08:29:46;15.43;;;14.00;;
8584;SDS011;7180;52.742;11.420;2023-03-01T08:32:11;15.23;;;13.83;;
8584;SDS011;7180;52.742;11.420;2023-03-01T08:34:36;15.63;;;14.23;;
8584;SDS011;7180;52.742;11.420;2023-03-01T08:37:01;15.33;;;13.93;;
8584;SDS011;7180;52.742;11.420;2023-03-01T08:39:27;15.43;;;13.93;;
8584;SDS011;7180;52.742;11.420;2023-03-01T08:41:52;15.17;;;13.97;;
8584;SDS011;7180;52.742;11.420;2023-03-01T08:44:18;14.20;;;12.80;;
8584;SDS011;7180;52.742;11.420;2023-03-01T08:46:44;14.93;;;13.67;;
8584;SDS011;7180;52.742;11.420;2023-03-01T08:49:15;15.27;;;13.87;;
8584;SDS011;7180;52.742;11.420;2023-03-01T08:51:42;14.27;;;12.93;;
8584;SDS011;7180;52.742;11.420;2023-03-01T08:54:10;14.60;;;13.30;;
8584;SDS011;7180;52.742;11.420;2023-03-01T08:56:40;14.67;;;13.43;;
8584;SDS011;7180;52.742;11.420;2023-03-01T08:59:06;15.50;;;14.00;;
8584;SDS011;7180;52.742;11.420;2023-03-01T09:01:31;17.23;;;15.53;;
8584;SDS011;7180;52.742;11.420;2023-03-01T09:03:56;15.23;;;13.87;;
8584;SDS011;7180;52.742;11.420;2023-03-01T09:06:22;15.27;;;13.97;;
8584;SDS011;7180;52.742;11.420;2023-03-01T09:08:48;15.13;;;13.83;;
8584;SDS011;7180;52.742;11.420;2023-03-01T09:11:21;14.50;;;13.40;;
8584;SDS011;7180;52.742;11.420;2023-03-01T09:13:47;14.30;;;13.20;;
8584;SDS011;7180;52.742;11.420;2023-03-01T09:16:13;16.57;;;15.07;;
8584;SDS011;7180;52.742;11.420;2023-03-01T09:18:40;15.23;;;13.93;;
8584;SDS011;7180;52.742;11.420;2023-03-01T09:21:06;14.37;;;13.27;;
8584;SDS011;7180;52.742;11.420;2023-03-01T09:23:34;15.77;;;14.37;;
8584;SDS011;7180;52.742;11.420;2023-03-01T09:26:01;15.63;;;14.20;;
8584;SDS011;7180;52.742;11.420;2023-03-01T09:28:27;16.43;;;14.93;;
8584;SDS011;7180;52.742;11.420;2023-03-01T09:30:52;13.43;;;12.33;;
8584;SDS011;7180;52.742;11.420;2023-03-01T09:33:18;13.30;;;12.10;;
8584;SDS011;7180;52.742;11.420;2023-03-01T09:35:43;12.90;;;11.80;;
8584;SDS011;7180;52.742;11.420;2023-03-01T09:38:12;12.17;;;11.13;;
8584;SDS011;7180;52.742;11.420;2023-03-01T09:40:42;12.40;;;11.40;;
8584;SDS011;7180;52.742;11.420;2023-03-01T09:45:55;11.40;;;10.57;;
8584;SDS011;7180;52.742;11.420;2023-03-01T09:48:26;11.23;;;10.53;;
8584;SDS011;7180;52.742;11.420;2023-03-01T09:50:54;12.07;;;11.10;;
8584;SDS011;7180;52.742;11.420;2023-03-01T09:53:22;11.87;;;11.07;;
8584;SDS011;7180;52.742;11.420;2023-03-01T10:01:23;11.10;;;10.20;;
8584;SDS011;7180;52.742;11.420;2023-03-01T10:04:11;11.00;;;10.20;;
8584;SDS011;7180;52.742;11.420;2023-03-01T10:06:51;11.03;;;10.33;;
8584;SDS011;7180;52.742;11.420;2023-03-01T10:09:34;11.00;;;10.10;;
8584;SDS011;7180;52.742;11.420;2023-03-01T10:12:02;10.43;;;9.73;;
8584;SDS011;7180;52.742;11.420;2023-03-01T10:14:36;10.33;;;9.63;;
8584;SDS011;7180;52.742;11.420;2023-03-01T10:17:43;10.70;;;9.90;;
8584;SDS011;7180;52.742;11.420;2023-03-01T10:20:20;10.57;;;9.77;;
8584;SDS011;7180;52.742;11.420;2023-03-01T10:22:48;10.43;;;9.67;;
8584;SDS011;7180;52.742;11.420;2023-03-01T10:28:09;10.40;;;9.70;;
8584;SDS011;7180;52.742;11.420;2023-03-01T10:30:41;9.90;;;9.30;;
8584;SDS011;7180;52.742;11.420;2023-03-01T10:33:20;10.70;;;9.90;;
8584;SDS011;7180;52.742;11.420;2023-03-01T10:35:48;9.90;;;9.30;;
8584;SDS011;7180;52.742;11.420;2023-03-01T10:38:15;9.80;;;8.90;;
8584;SDS011;7180;52.742;11.420;2023-03-01T10:40:54;9.80;;;9.20;;
8584;SDS011;7180;52.742;11.420;2023-03-01T10:43:20;9.67;;;9.07;;
8584;SDS011;7180;52.742;11.420;2023-03-01T10:45:46;10.20;;;9.50;;
8584;SDS011;7180;52.742;11.420;2023-03-01T10:50:43;9.30;;;8.80;;
8584;SDS011;7180;52.742;11.420;2023-03-01T10:53:27;9.57;;;8.87;;
8584;SDS011;7180;52.742;11.420;2023-03-01T10:55:56;11.67;;;8.83;;
8584;SDS011;7180;52.742;11.420;2023-03-01T10:58:28;10.23;;;9.40;;
8584;SDS011;7180;52.742;11.420;2023-03-01T11:00:55;10.03;;;9.40;;
8584;SDS011;7180;52.742;11.420;2023-03-01T11:03:24;10.50;;;9.73;;
8584;SDS011;7180;52.742;11.420;2023-03-01T11:08:34;10.03;;;9.33;;
8584;SDS011;7180;52.742;11.420;2023-03-01T11:13:53;8.83;;;8.30;;
8584;SDS011;7180;52.742;11.420;2023-03-01T11:16:39;8.80;;;8.30;;
8584;SDS011;7180;52.742;11.420;2023-03-01T11:21:34;10.17;;;9.47;;
8584;SDS011;7180;52.742;11.420;2023-03-01T11:24:04;9.40;;;8.80;;
8584;SDS011;7180;52.742;11.420;2023-03-01T11:26:36;9.67;;;8.97;;
8584;SDS011;7180;52.742;11.420;2023-03-01T11:29:06;9.83;;;9.17;;
8584;SDS011;7180;52.742;11.420;2023-03-01T11:31:41;9.57;;;8.97;;
8584;SDS011;7180;52.742;11.420;2023-03-01T11:34:11;9.37;;;8.77;;
8584;SDS011;7180;52.742;11.420;2023-03-01T11:41:45;9.50;;;8.70;;
8584;SDS011;7180;52.742;11.420;2023-03-01T11:44:20;9.67;;;8.97;;
8584;SDS011;7180;52.742;11.420;2023-03-01T11:49:52;9.20;;;8.40;;
8584;SDS011;7180;52.742;11.420;2023-03-01T11:55:20;9.50;;;8.90;;
8584;SDS011;7180;52.742;11.420;2023-03-01T12:12:21;9.27;;;8.53;;
8584;SDS011;7180;52.742;11.420;2023-03-01T12:23:16;8.80;;;8.30;;
8584;SDS011;7180;52.742;11.420;2023-03-01T12:25:58;8.90;;;8.30;;
8584;SDS011;7180;52.742;11.420;2023-03-01T12:39:51;8.23;;;7.73;;
8584;SDS011;7180;52.742;11.420;2023-03-01T12:42:44;8.47;;;8.00;;
8584;SDS011;7180;52.742;11.420;2023-03-01T12:45:45;8.30;;;7.77;;
8584;SDS011;7180;52.742;11.420;2023-03-01T12:48:31;8.30;;;7.80;;
8584;SDS011;7180;52.742;11.420;2023-03-01T12:51:13;8.00;;;7.50;;
8584;SDS011;7180;52.742;11.420;2023-03-01T12:53:42;8.20;;;7.70;;
8584;SDS011;7180;52.742;11.420;2023-03-01T12:56:13;7.83;;;7.33;;
8584;SDS011;7180;52.742;11.420;2023-03-01T12:58:46;8.57;;;8.07;;
8584;SDS011;7180;52.742;11.420;2023-03-01T13:01:36;8.50;;;8.00;;
8584;SDS011;7180;52.742;11.420;2023-03-01T13:04:12;8.00;;;7.50;;
8584;SDS011;7180;52.742;11.420;2023-03-01T13:06:49;8.70;;;8.03;;
8584;SDS011;7180;52.742;11.420;2023-03-01T13:17:47;8.83;;;8.33;;
8584;SDS011;7180;52.742;11.420;2023-03-01T13:20:18;8.80;;;8.30;;
8584;SDS011;7180;52.742;11.420;2023-03-01T13:22:46;8.43;;;7.93;;
8584;SDS011;7180;52.742;11.420;2023-03-01T13:27:45;8.13;;;7.63;;
8584;SDS011;7180;52.742;11.420;2023-03-01T13:35:48;8.63;;;8.10;;
8584;SDS011;7180;52.742;11.420;2023-03-01T13:44:11;8.70;;;8.10;;
8584;SDS011;7180;52.742;11.420;2023-03-01T13:46:42;9.00;;;8.40;;
8584;SDS011;7180;52.742;11.420;2023-03-01T13:49:09;8.97;;;8.37;;
8584;SDS011;7180;52.742;11.420;2023-03-01T13:51:40;8.97;;;8.37;;
8584;SDS011;7180;52.742;11.420;2023-03-01T13:54:09;8.67;;;8.10;;
8584;SDS011;7180;52.742;11.420;2023-03-01T13:56:37;8.70;;;8.20;;
8584;SDS011;7180;52.742;11.420;2023-03-01T13:59:13;9.57;;;8.87;;
8584;SDS011;7180;52.742;11.420;2023-03-01T14:01:40;9.57;;;8.87;;
8584;SDS011;7180;52.742;11.420;2023-03-01T14:04:22;8.93;;;8.33;;
8584;SDS011;7180;52.742;11.420;2023-03-01T14:07:08;9.00;;;8.33;;
8584;SDS011;7180;52.742;11.420;2023-03-01T14:09:39;9.17;;;8.47;;
8584;SDS011;7180;52.742;11.420;2023-03-01T14:12:14;9.70;;;9.00;;
8584;SDS011;7180;52.742;11.420;2023-03-01T14:17:27;9.03;;;8.53;;
8584;SDS011;7180;52.742;11.420;2023-03-01T14:20:11;9.10;;;8.60;;
8584;SDS011;7180;52.742;11.420;2023-03-01T14:22:41;9.60;;;8.90;;
8584;SDS011;7180;52.742;11.420;2023-03-01T14:27:55;9.33;;;8.70;;
8584;SDS011;7180;52.742;11.420;2023-03-01T14:30:36;9.10;;;8.50;;
8584;SDS011;7180;52.742;11.420;2023-03-01T14:33:16;9.37;;;8.77;;
8584;SDS011;7180;52.742;11.420;2023-03-01T14:35:51;9.33;;;8.73;;
8584;SDS011;7180;52.742;11.420;2023-03-01T14:38:21;9.87;;;9.17;;
8584;SDS011;7180;52.742;11.420;2023-03-01T14:40:48;9.50;;;8.90;;
8584;SDS011;7180;52.742;11.420;2023-03-01T14:43:20;9.63;;;8.93;;
8584;SDS011;7180;52.742;11.420;2023-03-01T14:45:49;9.37;;;8.77;;
8584;SDS011;7180;52.742;11.420;2023-03-01T14:48:15;9.03;;;8.43;;
8584;SDS011;7180;52.742;11.420;2023-03-01T14:50:42;9.30;;;8.70;;
8584;SDS011;7180;52.742;11.420;2023-03-01T14:53:20;10.10;;;9.30;;
8584;SDS011;7180;52.742;11.420;2023-03-01T14:55:49;9.73;;;9.13;;
8584;SDS011;7180;52.742;11.420;2023-03-01T14:58:18;10.03;;;9.40;;
8584;SDS011;7180;52.742;11.420;2023-03-01T15:00:51;9.60;;;8.90;;
8584;SDS011;7180;52.742;11.420;2023-03-01T15:03:23;9.47;;;8.83;;
8584;SDS011;7180;52.742;11.420;2023-03-01T15:05:52;9.50;;;8.90;;
8584;SDS011;7180;52.742;11.420;2023-03-01T15:08:23;9.47;;;8.87;;
8584;SDS011;7180;52.742;11.420;2023-03-01T15:11:00;9.30;;;8.70;;
8584;SDS011;7180;52.742;11.420;2023-03-01T15:13:38;9.87;;;9.23;;
8584;SDS011;7180;52.742;11.420;2023-03-01T15:16:10;9.80;;;9.20;;
8584;SDS011;7180;52.742;11.420;2023-03-01T15:19:15;10.30;;;9.63;;
8584;SDS011;7180;52.742;11.420;2023-03-01T15:21:35;9.27;;;8.57;;
8584;SDS011;7180;52.742;11.420;2023-03-01T15:26:31;10.10;;;9.40;;
8584;SDS011;7180;52.742;11.420;2023-03-01T15:29:00;9.70;;;9.10;;
8584;SDS011;7180;52.742;11.420;2023-03-01T15:34:21;10.27;;;9.57;;
8584;SDS011;7180;52.742;11.420;2023-03-01T15:36:48;10.20;;;9.53;;
8584;SDS011;7180;52.742;11.420;2023-03-01T15:39:34;10.57;;;9.80;;
8584;SDS011;7180;52.742;11.420;2023-03-01T15:44:32;10.80;;;10.10;;
8584;SDS011;7180;52.742;11.420;2023-03-01T15:46:59;11.20;;;10.30;;
8584;SDS011;7180;52.742;11.420;2023-03-01T15:51:57;10.30;;;9.60;;
8584;SDS011;7180;52.742;11.420;2023-03-01T15:54:23;10.07;;;9.43;;
8584;SDS011;7180;52.742;11.420;2023-03-01T15:56:51;10.07;;;9.37;;
8584;SDS011;7180;52.742;11.420;2023-03-01T15:59:17;10.90;;;9.90;;
8584;SDS011;7180;52.742;11.420;2023-03-01T16:01:43;10.43;;;9.70;;
8584;SDS011;7180;52.742;11.420;2023-03-01T16:04:10;10.63;;;9.77;;
8584;SDS011;7180;52.742;11.420;2023-03-01T16:06:38;9.93;;;9.20;;
8584;SDS011;7180;52.742;11.420;2023-03-01T16:09:04;10.20;;;9.50;;
8584;SDS011;7180;52.742;11.420;2023-03-01T16:11:29;9.77;;;9.07;;
8584;SDS011;7180;52.742;11.420;2023-03-01T16:13:56;9.77;;;9.13;;
8584;SDS011;7180;52.742;11.420;2023-03-01T16:16:21;9.57;;;8.87;;
8584;SDS011;7180;52.742;11.420;2023-03-01T16:18:47;9.33;;;8.73;;
8584;SDS011;7180;52.742;11.420;2023-03-01T16:21:20;10.30;;;9.60;;
8584;SDS011;7180;52.742;11.420;2023-03-01T16:23:47;9.77;;;9.10;;
8584;SDS011;7180;52.742;11.420;2023-03-01T16:26:13;9.70;;;9.10;;
8584;SDS011;7180;52.742;11.420;2023-03-01T16:28:42;10.00;;;9.30;;
8584;SDS011;7180;52.742;11.420;2023-03-01T16:31:08;9.87;;;9.27;;
8584;SDS011;7180;52.742;11.420;2023-03-01T16:33:33;10.20;;;9.50;;
8584;SDS011;7180;52.742;11.420;2023-03-01T16:35:59;9.40;;;8.80;;
8584;SDS011;7180;52.742;11.420;2023-03-01T16:38:27;9.07;;;8.47;;
8584;SDS011;7180;52.742;11.420;2023-03-01T16:40:52;9.80;;;9.10;;
8584;SDS011;7180;52.742;11.420;2023-03-01T16:43:17;9.30;;;8.50;;
8584;SDS011;7180;52.742;11.420;2023-03-01T16:45:43;8.90;;;8.30;;
8584;SDS011;7180;52.742;11.420;2023-03-01T16:48:10;9.50;;;8.70;;
8584;SDS011;7180;52.742;11.420;2023-03-01T16:50:36;9.93;;;9.30;;